sensor_id;sensor_type;location;lat;lon;timestamp;temperature;humidity
3069;DHT22;1545;51.728;8.796;2023-07-31T00:01:48;16.20;98.80
3069;DHT22;1545;51.728;8.796;2023-07-31T00:04:13;16.10;98.80
3069;DHT22;1545;51.728;8.796;2023-07-31T00:06:39;16.20;98.80
3069;DHT22;1545;51.728;8.796;2023-07-31T00:09:04;16.10;98.80
3069;DHT22;1545;51.728;8.796;2023-07-31T00:11:29;16.10;98.80
3069;DHT22;1545;51.728;8.796;2023-07-31T00:13:55;16.20;98.80
3069;DHT22;1545;51.728;8.796;2023-07-31T00:16:21;16.10;98.80
3069;DHT22;1545;51.728;8.796;2023-07-31T00:18:46;16.10;98.80
3069;DHT22;1545;51.728;8.796;2023-07-31T00:21:12;16.10;98.80
3069;DHT22;1545;51.728;8.796;2023-07-31T00:23:37;16.10;98.80
3069;DHT22;1545;51.728;8.796;2023-07-31T00:26:03;16.10;98.80
3069;DHT22;1545;51.728;8.796;2023-07-31T00:28:28;16.10;98.80
3069;DHT22;1545;51.728;8.796;2023-07-31T00:30:54;16.10;98.80
3069;DHT22;1545;51.728;8.796;2023-07-31T00:33:19;16.00;98.80
3069;DHT22;1545;51.728;8.796;2023-07-31T00:35:45;16.10;98.80
3069;DHT22;1545;51.728;8.796;2023-07-31T00:38:10;16.10;98.80
3069;DHT22;1545;51.728;8.796;2023-07-31T00:40:37;16.10;98.80
3069;DHT22;1545;51.728;8.796;2023-07-31T00:43:03;16.10;98.80
3069;DHT22;1545;51.728;8.796;2023-07-31T00:45:29;16.10;98.80
3069;DHT22;1545;51.728;8.796;2023-07-31T00:47:54;16.10;98.80
3069;DHT22;1545;51.728;8.796;2023-07-31T00:50:22;16.10;98.80
3069;DHT22;1545;51.728;8.796;2023-07-31T00:52:47;16.10;98.80
3069;DHT22;1545;51.728;8.796;2023-07-31T00:55:13;16.10;98.80
3069;DHT22;1545;51.728;8.796;2023-07-31T00:57:41;16.10;98.80
3069;DHT22;1545;51.728;8.796;2023-07-31T01:00:07;16.10;98.80
3069;DHT22;1545;51.728;8.796;2023-07-31T01:02:33;16.10;98.80
3069;DHT22;1545;51.728;8.796;2023-07-31T01:04:59;16.10;98.80
3069;DHT22;1545;51.728;8.796;2023-07-31T01:07:52;16.10;98.80
3069;DHT22;1545;51.728;8.796;2023-07-31T01:10:23;16.10;98.80
3069;DHT22;1545;51.728;8.796;2023-07-31T01:12:51;16.10;98.80
3069;DHT22;1545;51.728;8.796;2023-07-31T01:15:18;16.10;98.80
3069;DHT22;1545;51.728;8.796;2023-07-31T01:17:44;16.10;98.80
3069;DHT22;1545;51.728;8.796;2023-07-31T01:20:14;16.10;98.80
3069;DHT22;1545;51.728;8.796;2023-07-31T01:23:08;16.10;98.80
3069;DHT22;1545;51.728;8.796;2023-07-31T01:26:10;16.10;98.80
3069;DHT22;1545;51.728;8.796;2023-07-31T01:29:03;16.10;98.80
3069;DHT22;1545;51.728;8.796;2023-07-31T01:31:31;16.10;98.80
3069;DHT22;1545;51.728;8.796;2023-07-31T01:34:00;16.10;98.80
3069;DHT22;1545;51.728;8.796;2023-07-31T01:36:26;16.10;98.80
3069;DHT22;1545;51.728;8.796;2023-07-31T01:38:52;16.00;98.80
3069;DHT22;1545;51.728;8.796;2023-07-31T01:41:17;16.00;98.80
3069;DHT22;1545;51.728;8.796;2023-07-31T01:43:44;16.00;98.80
3069;DHT22;1545;51.728;8.796;2023-07-31T01:46:10;16.00;98.80
3069;DHT22;1545;51.728;8.796;2023-07-31T01:48:35;16.00;98.80
3069;DHT22;1545;51.728;8.796;2023-07-31T01:51:02;16.00;98.80
3069;DHT22;1545;51.728;8.796;2023-07-31T01:53:30;16.00;98.80
3069;DHT22;1545;51.728;8.796;2023-07-31T01:55:55;16.00;98.80
3069;DHT22;1545;51.728;8.796;2023-07-31T01:58:21;16.00;98.80
3069;DHT22;1545;51.728;8.796;2023-07-31T02:00:46;15.90;98.80
3069;DHT22;1545;51.728;8.796;2023-07-31T02:03:12;15.90;98.80
3069;DHT22;1545;51.728;8.796;2023-07-31T02:05:44;15.90;98.80
3069;DHT22;1545;51.728;8.796;2023-07-31T02:08:10;15.90;98.80
3069;DHT22;1545;51.728;8.796;2023-07-31T02:10:35;15.90;98.80
3069;DHT22;1545;51.728;8.796;2023-07-31T02:13:01;15.90;98.80
3069;DHT22;1545;51.728;8.796;2023-07-31T02:15:32;15.80;98.80
3069;DHT22;1545;51.728;8.796;2023-07-31T02:17:57;15.80;98.80
3069;DHT22;1545;51.728;8.796;2023-07-31T02:20:23;15.80;98.80
3069;DHT22;1545;51.728;8.796;2023-07-31T02:22:49;15.80;98.80
3069;DHT22;1545;51.728;8.796;2023-07-31T02:25:14;15.80;98.80
3069;DHT22;1545;51.728;8.796;2023-07-31T02:27:40;15.70;98.80
3069;DHT22;1545;51.728;8.796;2023-07-31T02:30:06;15.70;98.80
3069;DHT22;1545;51.728;8.796;2023-07-31T02:32:32;15.60;98.80
3069;DHT22;1545;51.728;8.796;2023-07-31T02:34:57;15.60;98.80
3069;DHT22;1545;51.728;8.796;2023-07-31T02:37:23;15.60;98.80
3069;DHT22;1545;51.728;8.796;2023-07-31T02:39:48;15.60;98.80
3069;DHT22;1545;51.728;8.796;2023-07-31T02:42:14;15.60;98.80
3069;DHT22;1545;51.728;8.796;2023-07-31T02:44:40;15.60;98.80
3069;DHT22;1545;51.728;8.796;2023-07-31T02:47:05;15.60;98.80
3069;DHT22;1545;51.728;8.796;2023-07-31T02:49:31;15.60;98.80
3069;DHT22;1545;51.728;8.796;2023-07-31T02:51:57;15.60;98.80
3069;DHT22;1545;51.728;8.796;2023-07-31T02:54:22;15.70;98.80
3069;DHT22;1545;51.728;8.796;2023-07-31T02:56:48;15.70;98.80
3069;DHT22;1545;51.728;8.796;2023-07-31T02:59:14;15.70;98.80
3069;DHT22;1545;51.728;8.796;2023-07-31T03:01:40;15.70;98.80
3069;DHT22;1545;51.728;8.796;2023-07-31T03:04:05;15.70;98.80
3069;DHT22;1545;51.728;8.796;2023-07-31T03:06:31;15.70;98.80
3069;DHT22;1545;51.728;8.796;2023-07-31T03:08:56;15.70;98.80
3069;DHT22;1545;51.728;8.796;2023-07-31T03:11:22;15.80;98.80
3069;DHT22;1545;51.728;8.796;2023-07-31T03:13:47;15.80;98.80
3069;DHT22;1545;51.728;8.796;2023-07-31T03:16:13;15.80;98.80
3069;DHT22;1545;51.728;8.796;2023-07-31T03:18:38;15.80;98.80
3069;DHT22;1545;51.728;8.796;2023-07-31T03:21:04;15.90;98.80
3069;DHT22;1545;51.728;8.796;2023-07-31T03:23:30;15.90;98.80
3069;DHT22;1545;51.728;8.796;2023-07-31T03:26:07;15.90;98.80
3069;DHT22;1545;51.728;8.796;2023-07-31T03:28:33;15.90;98.80
3069;DHT22;1545;51.728;8.796;2023-07-31T03:30:58;15.90;98.80
3069;DHT22;1545;51.728;8.796;2023-07-31T03:33:25;15.90;98.80
3069;DHT22;1545;51.728;8.796;2023-07-31T03:35:50;15.90;98.80
3069;DHT22;1545;51.728;8.796;2023-07-31T03:38:16;15.90;98.80
3069;DHT22;1545;51.728;8.796;2023-07-31T03:40:41;15.90;98.80
3069;DHT22;1545;51.728;8.796;2023-07-31T03:43:07;15.90;98.80
3069;DHT22;1545;51.728;8.796;2023-07-31T03:45:32;15.90;98.80
3069;DHT22;1545;51.728;8.796;2023-07-31T03:47:58;15.90;98.80
3069;DHT22;1545;51.728;8.796;2023-07-31T03:50:23;15.90;98.80
3069;DHT22;1545;51.728;8.796;2023-07-31T03:52:50;15.90;98.80
3069;DHT22;1545;51.728;8.796;2023-07-31T03:55:16;15.90;98.80
3069;DHT22;1545;51.728;8.796;2023-07-31T03:57:41;15.90;98.80
3069;DHT22;1545;51.728;8.796;2023-07-31T04:00:07;15.90;98.80
3069;DHT22;1545;51.728;8.796;2023-07-31T04:02:33;15.90;98.80
3069;DHT22;1545;51.728;8.796;2023-07-31T04:04:58;15.90;98.80
3069;DHT22;1545;51.728;8.796;2023-07-31T04:07:24;15.90;98.80
3069;DHT22;1545;51.728;8.796;2023-07-31T04:09:49;15.90;98.80
3069;DHT22;1545;51.728;8.796;2023-07-31T04:12:15;15.90;98.80
3069;DHT22;1545;51.728;8.796;2023-07-31T04:14:40;15.90;98.80
3069;DHT22;1545;51.728;8.796;2023-07-31T04:17:06;16.00;98.80
3069;DHT22;1545;51.728;8.796;2023-07-31T04:19:31;16.00;98.80
3069;DHT22;1545;51.728;8.796;2023-07-31T04:21:57;16.00;98.80
3069;DHT22;1545;51.728;8.796;2023-07-31T04:24:22;16.10;98.80
3069;DHT22;1545;51.728;8.796;2023-07-31T04:26:51;16.10;98.80
3069;DHT22;1545;51.728;8.796;2023-07-31T04:29:17;16.10;98.80
3069;DHT22;1545;51.728;8.796;2023-07-31T04:31:43;16.10;98.80
3069;DHT22;1545;51.728;8.796;2023-07-31T04:34:08;16.10;98.80
3069;DHT22;1545;51.728;8.796;2023-07-31T04:36:34;16.10;98.80
3069;DHT22;1545;51.728;8.796;2023-07-31T04:39:00;16.10;98.80
3069;DHT22;1545;51.728;8.796;2023-07-31T04:41:26;16.10;98.80
3069;DHT22;1545;51.728;8.796;2023-07-31T04:43:51;16.10;98.80
3069;DHT22;1545;51.728;8.796;2023-07-31T04:46:17;16.20;98.80
3069;DHT22;1545;51.728;8.796;2023-07-31T04:48:43;16.20;98.80
3069;DHT22;1545;51.728;8.796;2023-07-31T04:51:08;16.20;98.80
3069;DHT22;1545;51.728;8.796;2023-07-31T04:53:37;16.20;98.80
3069;DHT22;1545;51.728;8.796;2023-07-31T04:56:02;16.20;98.80
3069;DHT22;1545;51.728;8.796;2023-07-31T04:58:28;16.20;98.80
3069;DHT22;1545;51.728;8.796;2023-07-31T05:00:53;16.20;98.80
3069;DHT22;1545;51.728;8.796;2023-07-31T05:03:19;16.30;98.80
3069;DHT22;1545;51.728;8.796;2023-07-31T05:05:44;16.30;98.80
3069;DHT22;1545;51.728;8.796;2023-07-31T05:08:10;16.40;98.80
3069;DHT22;1545;51.728;8.796;2023-07-31T05:10:36;16.40;98.80
3069;DHT22;1545;51.728;8.796;2023-07-31T05:13:01;16.40;98.30
3069;DHT22;1545;51.728;8.796;2023-07-31T05:15:27;16.40;97.70
3069;DHT22;1545;51.728;8.796;2023-07-31T05:17:52;16.50;97.30
3069;DHT22;1545;51.728;8.796;2023-07-31T05:20:18;16.60;97.00
3069;DHT22;1545;51.728;8.796;2023-07-31T05:22:43;16.60;96.70
3069;DHT22;1545;51.728;8.796;2023-07-31T05:25:09;16.70;96.90
3069;DHT22;1545;51.728;8.796;2023-07-31T05:27:34;16.70;96.70
3069;DHT22;1545;51.728;8.796;2023-07-31T05:30:00;16.80;96.40
3069;DHT22;1545;51.728;8.796;2023-07-31T05:32:25;16.80;96.60
3069;DHT22;1545;51.728;8.796;2023-07-31T05:34:52;16.90;95.60
3069;DHT22;1545;51.728;8.796;2023-07-31T05:37:18;17.00;95.40
3069;DHT22;1545;51.728;8.796;2023-07-31T05:39:43;17.00;95.40
3069;DHT22;1545;51.728;8.796;2023-07-31T05:42:09;17.00;95.10
3069;DHT22;1545;51.728;8.796;2023-07-31T05:44:34;17.10;95.00
3069;DHT22;1545;51.728;8.796;2023-07-31T05:47:00;17.20;94.50
3069;DHT22;1545;51.728;8.796;2023-07-31T05:49:25;17.20;94.00
3069;DHT22;1545;51.728;8.796;2023-07-31T05:51:51;17.30;93.90
3069;DHT22;1545;51.728;8.796;2023-07-31T05:54:17;17.30;93.90
3069;DHT22;1545;51.728;8.796;2023-07-31T05:56:42;17.40;93.60
3069;DHT22;1545;51.728;8.796;2023-07-31T05:59:09;17.40;93.60
3069;DHT22;1545;51.728;8.796;2023-07-31T06:01:35;17.50;93.30
3069;DHT22;1545;51.728;8.796;2023-07-31T06:04:00;17.50;93.40
3069;DHT22;1545;51.728;8.796;2023-07-31T06:06:27;17.50;93.20
3069;DHT22;1545;51.728;8.796;2023-07-31T06:08:52;17.50;93.30
3069;DHT22;1545;51.728;8.796;2023-07-31T06:11:20;17.50;93.50
3069;DHT22;1545;51.728;8.796;2023-07-31T06:13:46;17.50;93.60
3069;DHT22;1545;51.728;8.796;2023-07-31T06:16:13;17.60;93.50
3069;DHT22;1545;51.728;8.796;2023-07-31T06:18:39;17.60;93.60
3069;DHT22;1545;51.728;8.796;2023-07-31T06:21:05;17.60;93.50
3069;DHT22;1545;51.728;8.796;2023-07-31T06:23:30;17.70;93.80
3069;DHT22;1545;51.728;8.796;2023-07-31T06:25:56;17.70;93.60
3069;DHT22;1545;51.728;8.796;2023-07-31T06:28:27;17.90;93.40
3069;DHT22;1545;51.728;8.796;2023-07-31T06:30:54;18.00;92.80
3069;DHT22;1545;51.728;8.796;2023-07-31T06:33:20;18.00;92.40
3069;DHT22;1545;51.728;8.796;2023-07-31T06:35:45;18.00;92.60
3069;DHT22;1545;51.728;8.796;2023-07-31T06:38:11;18.00;92.10
3069;DHT22;1545;51.728;8.796;2023-07-31T06:40:36;18.00;91.80
3069;DHT22;1545;51.728;8.796;2023-07-31T06:43:02;18.10;92.10
3069;DHT22;1545;51.728;8.796;2023-07-31T06:45:35;18.10;92.10
3069;DHT22;1545;51.728;8.796;2023-07-31T06:48:01;18.00;92.40
3069;DHT22;1545;51.728;8.796;2023-07-31T06:50:28;18.00;92.80
3069;DHT22;1545;51.728;8.796;2023-07-31T06:52:53;18.00;93.60
3069;DHT22;1545;51.728;8.796;2023-07-31T06:55:20;17.90;94.20
3069;DHT22;1545;51.728;8.796;2023-07-31T06:57:48;17.80;94.40
3069;DHT22;1545;51.728;8.796;2023-07-31T07:00:14;17.70;94.80
3069;DHT22;1545;51.728;8.796;2023-07-31T07:02:40;17.70;95.20
3069;DHT22;1545;51.728;8.796;2023-07-31T07:05:06;17.70;95.50
3069;DHT22;1545;51.728;8.796;2023-07-31T07:07:32;17.70;96.00
3069;DHT22;1545;51.728;8.796;2023-07-31T07:09:57;17.70;96.20
3069;DHT22;1545;51.728;8.796;2023-07-31T07:12:25;17.80;96.40
3069;DHT22;1545;51.728;8.796;2023-07-31T07:14:51;17.80;96.40
3069;DHT22;1545;51.728;8.796;2023-07-31T07:17:18;17.90;95.90
3069;DHT22;1545;51.728;8.796;2023-07-31T07:19:44;17.90;96.10
3069;DHT22;1545;51.728;8.796;2023-07-31T07:22:11;17.90;96.10
3069;DHT22;1545;51.728;8.796;2023-07-31T07:24:36;17.90;96.30
3069;DHT22;1545;51.728;8.796;2023-07-31T07:27:02;17.90;95.20
3069;DHT22;1545;51.728;8.796;2023-07-31T07:29:28;17.80;95.40
3069;DHT22;1545;51.728;8.796;2023-07-31T07:31:53;17.80;95.20
3069;DHT22;1545;51.728;8.796;2023-07-31T07:34:19;17.80;95.20
3069;DHT22;1545;51.728;8.796;2023-07-31T07:36:44;17.80;95.50
3069;DHT22;1545;51.728;8.796;2023-07-31T07:39:10;17.80;95.80
3069;DHT22;1545;51.728;8.796;2023-07-31T07:41:36;17.80;96.10
3069;DHT22;1545;51.728;8.796;2023-07-31T07:44:02;17.80;96.20
3069;DHT22;1545;51.728;8.796;2023-07-31T07:46:27;17.90;95.90
3069;DHT22;1545;51.728;8.796;2023-07-31T07:48:53;17.90;96.10
3069;DHT22;1545;51.728;8.796;2023-07-31T07:51:18;18.00;96.50
3069;DHT22;1545;51.728;8.796;2023-07-31T07:53:44;18.00;96.50
3069;DHT22;1545;51.728;8.796;2023-07-31T07:56:09;17.90;96.80
3069;DHT22;1545;51.728;8.796;2023-07-31T07:58:35;17.90;97.60
3069;DHT22;1545;51.728;8.796;2023-07-31T08:01:00;17.80;97.40
3069;DHT22;1545;51.728;8.796;2023-07-31T08:03:26;17.70;97.90
3069;DHT22;1545;51.728;8.796;2023-07-31T08:05:51;17.50;98.60
3069;DHT22;1545;51.728;8.796;2023-07-31T08:08:17;17.40;98.80
3069;DHT22;1545;51.728;8.796;2023-07-31T08:10:43;17.30;98.80
3069;DHT22;1545;51.728;8.796;2023-07-31T08:13:11;17.20;98.80
3069;DHT22;1545;51.728;8.796;2023-07-31T08:15:37;17.20;98.80
3069;DHT22;1545;51.728;8.796;2023-07-31T08:18:02;17.20;98.80
3069;DHT22;1545;51.728;8.796;2023-07-31T08:20:28;17.30;98.80
3069;DHT22;1545;51.728;8.796;2023-07-31T08:22:53;17.40;98.80
3069;DHT22;1545;51.728;8.796;2023-07-31T08:25:19;17.50;98.80
3069;DHT22;1545;51.728;8.796;2023-07-31T08:27:44;17.80;98.80
3069;DHT22;1545;51.728;8.796;2023-07-31T08:30:11;18.00;98.80
3069;DHT22;1545;51.728;8.796;2023-07-31T08:32:37;18.10;98.80
3069;DHT22;1545;51.728;8.796;2023-07-31T08:35:03;18.20;98.80
3069;DHT22;1545;51.728;8.796;2023-07-31T08:37:28;18.30;98.80
3069;DHT22;1545;51.728;8.796;2023-07-31T08:39:54;18.40;98.80
3069;DHT22;1545;51.728;8.796;2023-07-31T08:42:20;18.50;98.80
3069;DHT22;1545;51.728;8.796;2023-07-31T08:44:46;18.60;98.80
3069;DHT22;1545;51.728;8.796;2023-07-31T08:47:12;18.70;98.60
3069;DHT22;1545;51.728;8.796;2023-07-31T08:49:38;18.80;98.80
3069;DHT22;1545;51.728;8.796;2023-07-31T08:52:06;18.90;98.30
3069;DHT22;1545;51.728;8.796;2023-07-31T08:54:31;19.00;97.80
3069;DHT22;1545;51.728;8.796;2023-07-31T08:56:58;19.20;97.50
3069;DHT22;1545;51.728;8.796;2023-07-31T08:59:28;19.20;96.80
3069;DHT22;1545;51.728;8.796;2023-07-31T09:01:55;19.20;96.50
3069;DHT22;1545;51.728;8.796;2023-07-31T09:04:23;19.20;96.00
3069;DHT22;1545;51.728;8.796;2023-07-31T09:06:54;19.20;96.00
3069;DHT22;1545;51.728;8.796;2023-07-31T09:09:22;19.10;95.50
3069;DHT22;1545;51.728;8.796;2023-07-31T09:11:49;19.10;95.80
3069;DHT22;1545;51.728;8.796;2023-07-31T09:14:15;19.00;95.60
3069;DHT22;1545;51.728;8.796;2023-07-31T09:16:55;19.00;95.60
3069;DHT22;1545;51.728;8.796;2023-07-31T09:19:33;18.80;95.70
3069;DHT22;1545;51.728;8.796;2023-07-31T09:22:00;18.80;96.20
3069;DHT22;1545;51.728;8.796;2023-07-31T09:24:31;18.90;95.70
3069;DHT22;1545;51.728;8.796;2023-07-31T09:26:58;18.80;94.70
3069;DHT22;1545;51.728;8.796;2023-07-31T09:29:25;18.80;95.00
3069;DHT22;1545;51.728;8.796;2023-07-31T09:31:52;18.80;94.80
3069;DHT22;1545;51.728;8.796;2023-07-31T09:34:18;19.00;94.50
3069;DHT22;1545;51.728;8.796;2023-07-31T09:36:49;19.10;94.70
3069;DHT22;1545;51.728;8.796;2023-07-31T09:39:16;19.30;94.20
3069;DHT22;1545;51.728;8.796;2023-07-31T09:41:47;19.60;93.40
3069;DHT22;1545;51.728;8.796;2023-07-31T09:44:18;19.80;91.70
3069;DHT22;1545;51.728;8.796;2023-07-31T09:46:43;20.00;90.80
3069;DHT22;1545;51.728;8.796;2023-07-31T09:49:10;20.00;88.90
3069;DHT22;1545;51.728;8.796;2023-07-31T09:51:41;20.00;88.50
3069;DHT22;1545;51.728;8.796;2023-07-31T09:54:16;20.10;89.20
3069;DHT22;1545;51.728;8.796;2023-07-31T09:56:43;20.20;88.90
3069;DHT22;1545;51.728;8.796;2023-07-31T09:59:11;20.30;88.10
3069;DHT22;1545;51.728;8.796;2023-07-31T10:01:38;20.50;88.20
3069;DHT22;1545;51.728;8.796;2023-07-31T10:04:05;20.70;87.60
3069;DHT22;1545;51.728;8.796;2023-07-31T10:06:33;21.00;86.00
3069;DHT22;1545;51.728;8.796;2023-07-31T10:09:00;21.20;85.20
3069;DHT22;1545;51.728;8.796;2023-07-31T10:11:27;21.20;85.30
3069;DHT22;1545;51.728;8.796;2023-07-31T10:13:55;21.30;84.90
3069;DHT22;1545;51.728;8.796;2023-07-31T10:16:22;21.50;85.50
3069;DHT22;1545;51.728;8.796;2023-07-31T10:18:49;21.70;84.20
3069;DHT22;1545;51.728;8.796;2023-07-31T10:21:15;21.70;82.70
3069;DHT22;1545;51.728;8.796;2023-07-31T10:23:42;21.60;83.00
3069;DHT22;1545;51.728;8.796;2023-07-31T10:26:08;21.40;83.70
3069;DHT22;1545;51.728;8.796;2023-07-31T10:28:36;21.30;84.20
3069;DHT22;1545;51.728;8.796;2023-07-31T10:31:03;21.20;84.70
3069;DHT22;1545;51.728;8.796;2023-07-31T10:33:29;21.20;84.40
3069;DHT22;1545;51.728;8.796;2023-07-31T10:36:16;21.30;85.30
3069;DHT22;1545;51.728;8.796;2023-07-31T10:38:42;21.10;84.60
3069;DHT22;1545;51.728;8.796;2023-07-31T10:41:09;20.90;85.50
3069;DHT22;1545;51.728;8.796;2023-07-31T10:43:39;20.80;86.40
3069;DHT22;1545;51.728;8.796;2023-07-31T10:46:09;20.70;86.90
3069;DHT22;1545;51.728;8.796;2023-07-31T10:48:38;20.50;88.10
3069;DHT22;1545;51.728;8.796;2023-07-31T10:51:08;20.30;88.80
3069;DHT22;1545;51.728;8.796;2023-07-31T10:53:35;20.00;89.60
3069;DHT22;1545;51.728;8.796;2023-07-31T10:56:02;19.80;91.00
3069;DHT22;1545;51.728;8.796;2023-07-31T10:58:28;19.70;92.40
3069;DHT22;1545;51.728;8.796;2023-07-31T11:00:59;19.50;93.50
3069;DHT22;1545;51.728;8.796;2023-07-31T11:03:42;19.20;94.20
3069;DHT22;1545;51.728;8.796;2023-07-31T11:06:08;19.10;96.10
3069;DHT22;1545;51.728;8.796;2023-07-31T11:08:40;18.90;96.70
3069;DHT22;1545;51.728;8.796;2023-07-31T11:11:08;18.90;97.10
3069;DHT22;1545;51.728;8.796;2023-07-31T11:13:41;18.90;96.90
3069;DHT22;1545;51.728;8.796;2023-07-31T11:16:07;19.00;97.30
3069;DHT22;1545;51.728;8.796;2023-07-31T11:18:33;19.30;96.30
3069;DHT22;1545;51.728;8.796;2023-07-31T11:20:58;19.50;93.60
3069;DHT22;1545;51.728;8.796;2023-07-31T11:23:24;19.60;93.70
3069;DHT22;1545;51.728;8.796;2023-07-31T11:25:50;19.80;93.90
3069;DHT22;1545;51.728;8.796;2023-07-31T11:28:17;20.10;93.80
3069;DHT22;1545;51.728;8.796;2023-07-31T11:30:44;20.20;92.60
3069;DHT22;1545;51.728;8.796;2023-07-31T11:33:11;20.40;92.00
3069;DHT22;1545;51.728;8.796;2023-07-31T11:35:45;20.70;90.60
3069;DHT22;1545;51.728;8.796;2023-07-31T11:38:25;20.90;89.70
3069;DHT22;1545;51.728;8.796;2023-07-31T11:40:52;21.10;87.50
3069;DHT22;1545;51.728;8.796;2023-07-31T11:43:19;21.20;87.50
3069;DHT22;1545;51.728;8.796;2023-07-31T11:45:49;21.10;87.30
3069;DHT22;1545;51.728;8.796;2023-07-31T11:48:36;21.20;87.50
3069;DHT22;1545;51.728;8.796;2023-07-31T11:51:04;21.10;87.20
3069;DHT22;1545;51.728;8.796;2023-07-31T11:56:07;20.90;87.40
3069;DHT22;1545;51.728;8.796;2023-07-31T11:58:35;20.70;87.40
3069;DHT22;1545;51.728;8.796;2023-07-31T12:01:02;20.70;87.30
3069;DHT22;1545;51.728;8.796;2023-07-31T12:03:28;20.70;87.70
3069;DHT22;1545;51.728;8.796;2023-07-31T12:05:54;20.60;87.70
3069;DHT22;1545;51.728;8.796;2023-07-31T12:08:24;20.60;88.70
3069;DHT22;1545;51.728;8.796;2023-07-31T12:10:51;20.40;88.40
3069;DHT22;1545;51.728;8.796;2023-07-31T12:13:25;20.20;89.80
3069;DHT22;1545;51.728;8.796;2023-07-31T12:15:56;20.20;90.90
3069;DHT22;1545;51.728;8.796;2023-07-31T12:18:23;20.00;90.30
3069;DHT22;1545;51.728;8.796;2023-07-31T12:20:55;20.10;91.90
3069;DHT22;1545;51.728;8.796;2023-07-31T12:23:23;20.30;91.60
3069;DHT22;1545;51.728;8.796;2023-07-31T12:26:10;20.40;91.00
3069;DHT22;1545;51.728;8.796;2023-07-31T12:28:37;20.60;90.20
3069;DHT22;1545;51.728;8.796;2023-07-31T12:31:04;20.80;89.20
3069;DHT22;1545;51.728;8.796;2023-07-31T12:33:34;21.10;88.50
3069;DHT22;1545;51.728;8.796;2023-07-31T12:36:02;21.40;88.00
3069;DHT22;1545;51.728;8.796;2023-07-31T12:38:28;21.70;86.60
3069;DHT22;1545;51.728;8.796;2023-07-31T12:40:53;22.00;85.70
3069;DHT22;1545;51.728;8.796;2023-07-31T12:43:19;22.00;84.40
3069;DHT22;1545;51.728;8.796;2023-07-31T12:45:44;21.80;85.20
3069;DHT22;1545;51.728;8.796;2023-07-31T12:48:11;21.60;85.00
3069;DHT22;1545;51.728;8.796;2023-07-31T12:50:37;21.30;85.80
3069;DHT22;1545;51.728;8.796;2023-07-31T12:53:03;21.20;86.30
3069;DHT22;1545;51.728;8.796;2023-07-31T12:55:29;20.90;86.80
3069;DHT22;1545;51.728;8.796;2023-07-31T12:57:55;20.70;87.40
3069;DHT22;1545;51.728;8.796;2023-07-31T13:00:22;20.50;88.00
3069;DHT22;1545;51.728;8.796;2023-07-31T13:02:47;20.30;88.20
3069;DHT22;1545;51.728;8.796;2023-07-31T13:05:13;20.20;88.20
3069;DHT22;1545;51.728;8.796;2023-07-31T13:07:39;20.10;88.80
3069;DHT22;1545;51.728;8.796;2023-07-31T13:10:06;19.90;88.20
3069;DHT22;1545;51.728;8.796;2023-07-31T13:12:31;19.90;88.80
3069;DHT22;1545;51.728;8.796;2023-07-31T13:14:57;19.80;89.20
3069;DHT22;1545;51.728;8.796;2023-07-31T13:17:23;19.80;89.00
3069;DHT22;1545;51.728;8.796;2023-07-31T13:19:48;19.70;89.30
3069;DHT22;1545;51.728;8.796;2023-07-31T13:22:14;19.80;88.90
3069;DHT22;1545;51.728;8.796;2023-07-31T13:24:39;19.90;88.80
3069;DHT22;1545;51.728;8.796;2023-07-31T13:27:05;20.00;89.00
3069;DHT22;1545;51.728;8.796;2023-07-31T13:29:30;20.20;88.60
3069;DHT22;1545;51.728;8.796;2023-07-31T13:31:57;20.30;87.00
3069;DHT22;1545;51.728;8.796;2023-07-31T13:34:23;20.30;87.30
3069;DHT22;1545;51.728;8.796;2023-07-31T13:36:48;20.30;88.10
3069;DHT22;1545;51.728;8.796;2023-07-31T13:39:14;20.30;89.30
3069;DHT22;1545;51.728;8.796;2023-07-31T13:41:40;20.10;89.30
3069;DHT22;1545;51.728;8.796;2023-07-31T13:44:05;20.30;90.50
3069;DHT22;1545;51.728;8.796;2023-07-31T13:46:31;20.50;88.90
3069;DHT22;1545;51.728;8.796;2023-07-31T13:48:58;20.60;88.60
3069;DHT22;1545;51.728;8.796;2023-07-31T13:51:25;20.80;88.00
3069;DHT22;1545;51.728;8.796;2023-07-31T13:53:51;21.10;87.40
3069;DHT22;1545;51.728;8.796;2023-07-31T13:56:16;21.20;86.20
3069;DHT22;1545;51.728;8.796;2023-07-31T13:58:42;21.30;86.00
3069;DHT22;1545;51.728;8.796;2023-07-31T14:01:07;21.40;85.30
3069;DHT22;1545;51.728;8.796;2023-07-31T14:03:33;21.40;85.60
3069;DHT22;1545;51.728;8.796;2023-07-31T14:05:58;21.50;84.90
3069;DHT22;1545;51.728;8.796;2023-07-31T14:08:24;21.40;85.20
3069;DHT22;1545;51.728;8.796;2023-07-31T14:10:50;21.30;85.40
3069;DHT22;1545;51.728;8.796;2023-07-31T14:13:15;21.20;84.90
3069;DHT22;1545;51.728;8.796;2023-07-31T14:15:44;21.10;85.90
3069;DHT22;1545;51.728;8.796;2023-07-31T14:18:09;21.00;86.50
3069;DHT22;1545;51.728;8.796;2023-07-31T14:20:35;20.90;86.90
3069;DHT22;1545;51.728;8.796;2023-07-31T14:23:02;20.80;87.40
3069;DHT22;1545;51.728;8.796;2023-07-31T14:25:28;20.70;87.40
3069;DHT22;1545;51.728;8.796;2023-07-31T14:27:54;20.80;87.80
3069;DHT22;1545;51.728;8.796;2023-07-31T14:30:20;20.80;87.70
3069;DHT22;1545;51.728;8.796;2023-07-31T14:32:46;20.60;88.70
3069;DHT22;1545;51.728;8.796;2023-07-31T14:35:11;20.40;89.00
3069;DHT22;1545;51.728;8.796;2023-07-31T14:37:41;20.30;89.80
3069;DHT22;1545;51.728;8.796;2023-07-31T14:40:08;20.10;90.50
3069;DHT22;1545;51.728;8.796;2023-07-31T14:42:35;20.00;91.70
3069;DHT22;1545;51.728;8.796;2023-07-31T14:45:01;20.00;92.90
3069;DHT22;1545;51.728;8.796;2023-07-31T14:47:26;19.90;93.20
3069;DHT22;1545;51.728;8.796;2023-07-31T14:49:53;19.80;93.10
3069;DHT22;1545;51.728;8.796;2023-07-31T14:52:18;19.70;94.30
3069;DHT22;1545;51.728;8.796;2023-07-31T14:54:44;19.60;94.70
3069;DHT22;1545;51.728;8.796;2023-07-31T14:57:10;19.60;94.20
3069;DHT22;1545;51.728;8.796;2023-07-31T14:59:36;19.60;94.90
3069;DHT22;1545;51.728;8.796;2023-07-31T15:02:01;19.60;94.90
3069;DHT22;1545;51.728;8.796;2023-07-31T15:04:27;19.70;94.80
3069;DHT22;1545;51.728;8.796;2023-07-31T15:06:53;19.80;94.80
3069;DHT22;1545;51.728;8.796;2023-07-31T15:09:18;20.00;94.50
3069;DHT22;1545;51.728;8.796;2023-07-31T15:11:44;20.30;93.70
3069;DHT22;1545;51.728;8.796;2023-07-31T15:14:09;20.60;92.40
3069;DHT22;1545;51.728;8.796;2023-07-31T15:16:35;21.00;91.20
3069;DHT22;1545;51.728;8.796;2023-07-31T15:19:00;21.20;89.70
3069;DHT22;1545;51.728;8.796;2023-07-31T15:21:26;21.20;89.10
3069;DHT22;1545;51.728;8.796;2023-07-31T15:23:52;21.10;89.20
3069;DHT22;1545;51.728;8.796;2023-07-31T15:26:17;20.90;89.50
3069;DHT22;1545;51.728;8.796;2023-07-31T15:28:48;20.80;90.40
3069;DHT22;1545;51.728;8.796;2023-07-31T15:31:14;20.80;90.10
3069;DHT22;1545;51.728;8.796;2023-07-31T15:33:39;20.80;90.30
3069;DHT22;1545;51.728;8.796;2023-07-31T15:36:06;20.80;90.00
3069;DHT22;1545;51.728;8.796;2023-07-31T15:38:32;20.90;90.00
3069;DHT22;1545;51.728;8.796;2023-07-31T15:40:57;20.80;90.40
3069;DHT22;1545;51.728;8.796;2023-07-31T15:43:23;20.90;90.10
3069;DHT22;1545;51.728;8.796;2023-07-31T15:45:49;21.00;89.90
3069;DHT22;1545;51.728;8.796;2023-07-31T15:48:14;21.00;89.60
3069;DHT22;1545;51.728;8.796;2023-07-31T15:50:40;21.00;89.10
3069;DHT22;1545;51.728;8.796;2023-07-31T15:53:05;21.00;89.20
3069;DHT22;1545;51.728;8.796;2023-07-31T15:55:31;21.00;88.40
3069;DHT22;1545;51.728;8.796;2023-07-31T15:57:56;21.10;88.70
3069;DHT22;1545;51.728;8.796;2023-07-31T16:00:22;21.00;88.80
3069;DHT22;1545;51.728;8.796;2023-07-31T16:02:48;20.90;88.80